createdAt,value
2019-05-21T00:04:44.926Z,95063.1
2019-05-21T00:09:41.993Z,95066.2
2019-05-21T00:14:39.723Z,94920.3
2019-05-21T00:19:37.086Z,95053.9
2019-05-21T00:24:34.617Z,94984.2
2019-05-21T00:29:31.955Z,95060.3
2019-05-21T00:34:42.978Z,95079.6
2019-05-21T00:39:26.325Z,95017.5
2019-05-21T00:44:23.752Z,95091.3
2019-05-21T00:49:20.640Z,95074
2019-05-21T00:54:18.113Z,95073.5
2019-05-21T00:59:15.204Z,95083.9
2019-05-21T01:04:12.322Z,95088.5
2019-05-21T01:09:09.643Z,95020.9
2019-05-21T01:14:07.231Z,95093.3
2019-05-21T01:19:04.772Z,95085.1
2019-05-21T01:24:01.948Z,95075.7
2019-05-21T01:28:58.812Z,95075.7
2019-05-21T01:33:56.101Z,95071
2019-05-21T01:38:53.123Z,95054.5
2019-05-21T01:43:50.547Z,95029.1
2019-05-21T01:48:47.932Z,95054.1
2019-05-21T01:53:45.262Z,94828.2
2019-05-21T01:58:42.595Z,95062.6
2019-05-21T02:03:40.082Z,95058.4
2019-05-21T02:08:37.082Z,95066.7
2019-05-21T02:13:34.043Z,95072.7
2019-05-21T02:18:30.893Z,95094
2019-05-21T02:23:27.763Z,95083.3
2019-05-21T02:28:25.457Z,95002.3
2019-05-21T02:33:22.569Z,95006.9
2019-05-21T02:38:19.311Z,95082.4
2019-05-21T02:43:16.518Z,95092.9
2019-05-21T02:48:13.292Z,95096.5
2019-05-21T02:53:10.437Z,95110.5
2019-05-21T02:58:07.601Z,95118.3
2019-05-21T03:03:04.787Z,95113.6
2019-05-21T03:08:01.842Z,95120.5
2019-05-21T03:12:58.875Z,95125.9
2019-05-21T03:17:55.908Z,95123.4
2019-05-21T03:22:52.806Z,95126.2
2019-05-21T03:27:50.303Z,95121.4
2019-05-21T03:32:47.650Z,94988.7
2019-05-21T03:37:44.625Z,95138
2019-05-21T03:42:41.737Z,95134
2019-05-21T03:47:38.711Z,95071.1
2019-05-21T03:52:35.736Z,95142.1
2019-05-21T03:57:32.728Z,95150.6
2019-05-21T04:02:29.566Z,95156.1
2019-05-21T04:07:27.069Z,95088.2
2019-05-21T04:12:24.523Z,95153.4
2019-05-21T04:17:21.578Z,95160.7
2019-05-21T04:22:19.025Z,95163.4
2019-05-21T04:27:16.444Z,95159
2019-05-21T04:32:13.407Z,95162.8
2019-05-21T04:37:11.927Z,95096.7
2019-05-21T04:42:07.965Z,95170
2019-05-21T04:47:05.383Z,95175.6
2019-05-21T04:52:02.436Z,95148.7
2019-05-21T04:56:59.896Z,95175.5
2019-05-21T05:01:57.141Z,95174.5
2019-05-21T05:06:54.210Z,95179.2
2019-05-21T05:11:51.302Z,95174.1
2019-05-21T05:16:48.601Z,95167.9
2019-05-21T05:21:46.377Z,95111.2
2019-05-21T05:26:43.379Z,95169.2
2019-05-21T05:31:40.465Z,95166.9
2019-05-21T05:36:37.667Z,95167.9
2019-05-21T05:41:35.258Z,95160.5
2019-05-21T05:46:32.882Z,95171.3
2019-05-21T05:51:30.469Z,95174.9
2019-05-21T05:56:27.985Z,95171.5
2019-05-21T06:01:25.233Z,95177.8
2019-05-21T06:06:22.614Z,95175.1
2019-05-21T06:11:19.787Z,95176.4
2019-05-21T06:16:16.923Z,95176.7
2019-05-21T06:21:14.196Z,95176.1
2019-05-21T06:26:11.895Z,95174
2019-05-21T06:31:08.876Z,95170
2019-05-21T06:36:05.911Z,95168.2
2019-05-21T06:41:03.383Z,95102.4
2019-05-21T06:46:00.989Z,95174.6
2019-05-21T06:50:57.254Z,95167
2019-05-21T06:55:54.581Z,95167.1
2019-05-21T07:00:52.386Z,95145.4
2019-05-21T07:05:58.595Z,95163.5
2019-05-21T07:10:46.880Z,95161.1
2019-05-21T07:15:44.413Z,95149.4
2019-05-21T07:20:42.146Z,95150
2019-05-21T07:25:39.307Z,95121.9
2019-05-21T07:30:36.628Z,95138.7
2019-05-21T07:35:34.621Z,95143.7
2019-05-21T07:40:31.297Z,95140.5
2019-05-21T07:45:28.817Z,95131.6
2019-05-21T07:50:25.504Z,95131.3
2019-05-21T07:55:23.245Z,95132.7
2019-05-21T08:00:20.488Z,95129
2019-05-21T08:05:18.335Z,95130.3
2019-05-21T08:10:15.828Z,94448
2019-05-21T08:15:12.873Z,95129
2019-05-21T08:20:10.866Z,95132.3
2019-05-21T08:25:06.515Z,95141.6
2019-05-21T08:30:03.690Z,95135.1
2019-05-21T08:35:01.318Z,95175.6
2019-05-21T08:39:58.025Z,95116.9
2019-05-21T08:44:55.163Z,95117.9
2019-05-21T08:49:52.082Z,95100.3
2019-05-21T08:54:49.143Z,95110.9
2019-05-21T08:59:46.379Z,95103.1
2019-05-21T09:04:46.536Z,95101.9
2019-05-21T09:09:49.715Z,95103.1
2019-05-21T09:14:38.290Z,95142.2
2019-05-21T09:19:36.647Z,95034.4
2019-05-21T09:24:33.207Z,95144.8
2019-05-21T09:29:30.310Z,95119.8
2019-05-21T09:34:27.838Z,95034.6
2019-05-21T09:39:24.723Z,95075
2019-05-21T09:44:22.505Z,95024.4
2019-05-21T09:49:19.613Z,95030.5
2019-05-21T09:54:17.887Z,95111.8
2019-05-21T09:59:15.402Z,95016.7
2019-05-21T10:04:12.880Z,95005.1
2019-05-21T10:09:10.058Z,95009.5
2019-05-21T10:14:07.537Z,95038.6
2019-05-21T10:19:04.369Z,95108
2019-05-21T10:24:02.028Z,94986.1
2019-05-21T10:28:58.874Z,94991.7
2019-05-21T10:33:56.094Z,94959.4
2019-05-21T10:38:53.441Z,95108.8
2019-05-21T10:43:51.065Z,94984.3
2019-05-21T10:48:48.022Z,94977.8
2019-05-21T10:53:44.844Z,94980.7
2019-05-21T10:58:42.222Z,94981.8
2019-05-21T11:03:39.847Z,94985.5
2019-05-21T11:08:37.112Z,94998.9
2019-05-21T11:13:34.589Z,95003.2
2019-05-21T11:18:31.715Z,95014.3
2019-05-21T11:23:28.900Z,95013.4
2019-05-21T11:28:25.965Z,95022
2019-05-21T11:33:23.233Z,95051.6
2019-05-21T11:38:20.794Z,95161.9
2019-05-21T11:43:18.304Z,95174.1
2019-05-21T11:48:15.193Z,95113.3
2019-05-21T11:53:12.115Z,95089.5
2019-05-21T11:58:09.248Z,95093.1
2019-05-21T12:08:03.674Z,95078.2
2019-05-21T12:13:01.040Z,95078.3
2019-05-21T12:17:57.893Z,95072.2
2019-05-21T12:22:54.924Z,95080.4
2019-05-21T12:27:52.007Z,95072.8
2019-05-21T12:32:49.242Z,95064.1
2019-05-21T12:37:46.037Z,95047.4
2019-05-21T12:42:43.076Z,95076.5
2019-05-21T12:47:40.049Z,95068.5
2019-05-21T12:52:37.619Z,95135.9
2019-05-21T12:57:34.664Z,95054.4
2019-05-21T13:02:31.753Z,95038.4
2019-05-21T13:07:28.575Z,95042.2
2019-05-21T13:12:25.651Z,95058.1
2019-05-21T13:17:22.857Z,95187.2
2019-05-21T13:22:19.906Z,95109.2
2019-05-21T13:27:17.189Z,95063
2019-05-21T13:32:14.195Z,95051.8
2019-05-21T13:37:10.913Z,95082.8
2019-05-21T13:42:08.067Z,95067.1
2019-05-21T13:47:05.217Z,95036.5
2019-05-21T13:52:02.955Z,95100.1
2019-05-21T13:56:59.963Z,95136.4
2019-05-21T14:01:57.219Z,95043.1
2019-05-21T14:06:55.069Z,95053.4
2019-05-21T14:11:52.004Z,95064.1
2019-05-21T14:16:49.128Z,95040.9
2019-05-21T14:21:46.307Z,95029.1
2019-05-21T14:26:43.401Z,95040.8
2019-05-21T14:31:40.746Z,95052.7
2019-05-21T14:36:37.915Z,95029.9
2019-05-21T14:41:35.093Z,95051.9
2019-05-21T14:46:32.066Z,95003.8
2019-05-21T14:51:31.259Z,95037
2019-05-21T14:56:27.943Z,95034.1
2019-05-21T15:01:25.086Z,95031.5
2019-05-21T15:06:22.583Z,95036.6
2019-05-21T15:11:19.835Z,95028.8
2019-05-21T15:16:17.165Z,95032.2
2019-05-21T15:21:14.482Z,95027.6
2019-05-21T15:26:11.303Z,95026.9
2019-05-21T15:31:08.524Z,94956.7
2019-05-21T15:36:05.386Z,95059.4
2019-05-21T15:41:10.049Z,95073.3
2019-05-21T15:45:59.634Z,95061.7
2019-05-21T15:50:56.558Z,95064.9
2019-05-21T15:55:53.985Z,95053.1
2019-05-21T16:00:51.780Z,95118.9
2019-05-21T16:05:49.051Z,95068.1
2019-05-21T16:10:46.171Z,95079.8
2019-05-21T16:15:43.111Z,95039.7
2019-05-21T16:20:42.560Z,95144
2019-05-21T16:25:37.706Z,95079
2019-05-21T16:30:34.839Z,95074.5
2019-05-21T16:35:32.030Z,95078.2
2019-05-21T16:40:29.442Z,95093.5
2019-05-21T16:45:26.656Z,95083.9
2019-05-21T16:50:23.462Z,95085.4
2019-05-21T16:55:20.486Z,95080.6
2019-05-21T17:00:17.429Z,95083.8
2019-05-21T17:05:13.940Z,95095.8
2019-05-21T17:10:11.202Z,95104.6
2019-05-21T17:15:08.470Z,95099.2
2019-05-21T17:20:05.743Z,95098.7
2019-05-21T17:25:03.412Z,95103.4
2019-05-21T17:30:00.642Z,95097.7
2019-05-21T17:34:57.790Z,95085.2
2019-05-21T17:39:55.253Z,95098.8
2019-05-21T17:44:52.330Z,95093.2
2019-05-21T17:49:49.353Z,95095.9
2019-05-21T17:54:56.010Z,95096.6
2019-05-21T17:59:44.006Z,95100.2
2019-05-21T18:04:41.398Z,95131.4
2019-05-21T18:09:38.912Z,95099.6
2019-05-21T18:14:36.211Z,95106.2
2019-05-21T18:19:34.213Z,95111.1
2019-05-21T18:24:31.591Z,95119
2019-05-21T18:29:28.747Z,95120.6
2019-05-21T18:34:25.818Z,94571
2019-05-21T18:39:22.831Z,95137.3
2019-05-21T18:44:19.986Z,95144.3
2019-05-21T18:49:17.034Z,95151.9
2019-05-21T18:54:14.163Z,95280.5
2019-05-21T18:59:11.729Z,95166.8
2019-05-21T19:04:08.648Z,95278.5
2019-05-21T19:09:05.778Z,95166.7
2019-05-21T19:14:02.610Z,95232.8
2019-05-21T19:18:59.541Z,95244
2019-05-21T19:23:56.485Z,95215.6
2019-05-21T19:28:54.331Z,95248.8
2019-05-21T19:33:51.363Z,95307.9
2019-05-21T19:38:49.138Z,95268.8
2019-05-21T19:43:46.477Z,95204.3
2019-05-21T19:48:43.749Z,95216.6
2019-05-21T19:53:41.176Z,95335.1
2019-05-21T19:58:38.289Z,95272.8
2019-05-21T20:03:35.238Z,95273
2019-05-21T20:08:32.332Z,95272.6
2019-05-21T20:13:32.333Z,95279
2019-05-21T20:18:26.608Z,95279.5
2019-05-21T20:23:23.441Z,95330.3
2019-05-21T20:28:20.231Z,95326.9
2019-05-21T20:33:16.551Z,95322.5
2019-05-21T20:38:13.687Z,95331.4
2019-05-21T20:43:11.445Z,95290.8
2019-05-21T20:48:08.211Z,95288.9
2019-05-21T20:53:05.190Z,95285.8
2019-05-21T20:58:02.183Z,95288.8
2019-05-21T21:02:59.102Z,95330.8
2019-05-21T21:07:56.058Z,95276.2
2019-05-21T21:12:52.990Z,95280.7
2019-05-21T21:17:50.165Z,95339.7
2019-05-21T21:22:47.451Z,95343.1
2019-05-21T21:27:44.880Z,95288.3
2019-05-21T21:32:41.588Z,95286.7
2019-05-21T21:37:38.803Z,95285.7
2019-05-21T21:42:35.965Z,95255.9
2019-05-21T21:47:33.088Z,95283.3
2019-05-21T21:52:30.191Z,95292.9
2019-05-21T21:57:27.752Z,95295.4
2019-05-21T22:02:24.731Z,95298.1
2019-05-21T22:07:21.656Z,95294.2
2019-05-21T22:12:18.767Z,95307.1
2019-05-21T22:17:15.972Z,95306.9
2019-05-21T22:22:13.004Z,95286.7
2019-05-21T22:27:10.516Z,95306.7
2019-05-21T22:32:07.718Z,95296.9
2019-05-21T22:37:05.072Z,95298.5
2019-05-21T22:42:02.124Z,95302
2019-05-21T22:46:59.069Z,95301.5
2019-05-21T22:51:55.880Z,95296.7
2019-05-21T22:56:52.975Z,95296.7
2019-05-21T23:01:50.022Z,95298
2019-05-21T23:06:47.121Z,95293.2
2019-05-21T23:11:44.409Z,95292.4
2019-05-21T23:16:41.522Z,95291.7
2019-05-21T23:21:38.789Z,95296.5
2019-05-21T23:26:36.039Z,95272.5
2019-05-21T23:31:33.142Z,95229
2019-05-21T23:36:30.382Z,95228.4
2019-05-21T23:41:27.963Z,95331.3
2019-05-21T23:46:25.036Z,95294.1
2019-05-21T23:51:22.162Z,95348.6
2019-05-21T23:56:19.018Z,95306.4
